sensor_id;sensor_type;location;lat;lon;timestamp;pressure;altitude;pressure_sealevel;temperature;humidity
63715;BME280;49858;48.956;9.076;2024-01-10T00:00:52;99621.50;;;3.28;49.53
63715;BME280;49858;48.956;9.076;2024-01-10T00:03:19;99625.13;;;2.85;49.92
63715;BME280;49858;48.956;9.076;2024-01-10T00:05:47;99628.91;;;2.89;50.59
63715;BME280;49858;48.956;9.076;2024-01-10T00:08:15;99616.53;;;3.06;50.55
63715;BME280;49858;48.956;9.076;2024-01-10T00:10:45;99622.09;;;2.86;51.08
63715;BME280;49858;48.956;9.076;2024-01-10T00:13:12;99626.09;;;2.99;52.31
63715;BME280;49858;48.956;9.076;2024-01-10T00:15:40;99621.03;;;2.87;53.80
63715;BME280;49858;48.956;9.076;2024-01-10T00:18:08;99618.47;;;2.62;54.17
63715;BME280;49858;48.956;9.076;2024-01-10T00:20:36;99615.53;;;2.97;54.61
63715;BME280;49858;48.956;9.076;2024-01-10T00:23:05;99610.31;;;3.01;52.65
63715;BME280;49858;48.956;9.076;2024-01-10T00:25:33;99616.34;;;3.27;52.99
63715;BME280;49858;48.956;9.076;2024-01-10T00:28:03;99611.16;;;3.01;51.70
63715;BME280;49858;48.956;9.076;2024-01-10T00:30:30;99611.19;;;2.91;54.20
63715;BME280;49858;48.956;9.076;2024-01-10T00:32:59;99614.34;;;3.08;54.93
63715;BME280;49858;48.956;9.076;2024-01-10T00:35:27;99613.28;;;3.04;54.76
63715;BME280;49858;48.956;9.076;2024-01-10T00:37:55;99612.38;;;3.14;55.11
63715;BME280;49858;48.956;9.076;2024-01-10T00:40:23;99607.75;;;3.15;54.72
63715;BME280;49858;48.956;9.076;2024-01-10T00:42:51;99606.81;;;2.95;54.52
63715;BME280;49858;48.956;9.076;2024-01-10T00:45:20;99608.31;;;2.77;58.27
63715;BME280;49858;48.956;9.076;2024-01-10T00:47:50;99605.84;;;3.15;56.64
63715;BME280;49858;48.956;9.076;2024-01-10T00:50:18;99609.56;;;3.29;56.11
63715;BME280;49858;48.956;9.076;2024-01-10T00:52:46;99609.50;;;3.35;56.35
63715;BME280;49858;48.956;9.076;2024-01-10T00:55:14;99602.19;;;3.30;54.97
63715;BME280;49858;48.956;9.076;2024-01-10T00:57:42;99605.88;;;3.44;54.24
63715;BME280;49858;48.956;9.076;2024-01-10T01:00:11;99602.25;;;3.25;55.96
63715;BME280;49858;48.956;9.076;2024-01-10T01:02:40;99607.00;;;3.38;55.88
63715;BME280;49858;48.956;9.076;2024-01-10T01:05:08;99608.91;;;3.08;55.83
63715;BME280;49858;48.956;9.076;2024-01-10T01:07:36;99611.31;;;3.10;56.84
63715;BME280;49858;48.956;9.076;2024-01-10T01:10:07;99616.00;;;3.33;56.28
63715;BME280;49858;48.956;9.076;2024-01-10T01:12:38;99617.22;;;3.51;56.28
63715;BME280;49858;48.956;9.076;2024-01-10T01:15:06;99616.22;;;3.42;56.37
63715;BME280;49858;48.956;9.076;2024-01-10T01:17:34;99620.44;;;3.24;55.35
63715;BME280;49858;48.956;9.076;2024-01-10T01:20:04;99625.25;;;3.03;58.76
63715;BME280;49858;48.956;9.076;2024-01-10T01:22:32;99623.03;;;3.11;57.78
63715;BME280;49858;48.956;9.076;2024-01-10T01:25:00;99623.25;;;3.14;60.88
63715;BME280;49858;48.956;9.076;2024-01-10T01:27:29;99616.59;;;3.30;58.17
63715;BME280;49858;48.956;9.076;2024-01-10T01:29:56;99624.34;;;3.13;57.39
63715;BME280;49858;48.956;9.076;2024-01-10T01:32:24;99622.41;;;3.19;57.91
63715;BME280;49858;48.956;9.076;2024-01-10T01:34:52;99626.34;;;3.02;58.18
63715;BME280;49858;48.956;9.076;2024-01-10T01:37:22;99633.56;;;3.17;59.96
63715;BME280;49858;48.956;9.076;2024-01-10T01:39:49;99618.66;;;2.75;61.38
63715;BME280;49858;48.956;9.076;2024-01-10T01:42:17;99624.53;;;2.93;61.64
63715;BME280;49858;48.956;9.076;2024-01-10T01:44:45;99620.28;;;3.16;62.06
63715;BME280;49858;48.956;9.076;2024-01-10T01:47:13;99618.69;;;2.70;63.37
63715;BME280;49858;48.956;9.076;2024-01-10T01:49:42;99614.28;;;2.35;65.64
63715;BME280;49858;48.956;9.076;2024-01-10T01:52:10;99616.97;;;2.45;67.88
63715;BME280;49858;48.956;9.076;2024-01-10T01:54:39;99613.97;;;2.42;68.30
63715;BME280;49858;48.956;9.076;2024-01-10T01:57:08;99618.16;;;2.19;70.28
63715;BME280;49858;48.956;9.076;2024-01-10T01:59:36;99611.28;;;2.37;70.61
63715;BME280;49858;48.956;9.076;2024-01-10T02:02:04;99614.63;;;2.23;72.95
63715;BME280;49858;48.956;9.076;2024-01-10T02:04:32;99617.41;;;2.08;71.66
63715;BME280;49858;48.956;9.076;2024-01-10T02:07:00;99623.03;;;2.27;74.55
63715;BME280;49858;48.956;9.076;2024-01-10T02:09:28;99618.19;;;2.14;74.06
63715;BME280;49858;48.956;9.076;2024-01-10T02:11:58;99614.59;;;2.28;73.02
63715;BME280;49858;48.956;9.076;2024-01-10T02:14:26;99612.44;;;2.20;75.04
63715;BME280;49858;48.956;9.076;2024-01-10T02:16:54;99610.81;;;2.24;73.35
63715;BME280;49858;48.956;9.076;2024-01-10T02:19:23;99613.25;;;2.21;75.48
63715;BME280;49858;48.956;9.076;2024-01-10T02:21:53;99602.78;;;2.48;73.39
63715;BME280;49858;48.956;9.076;2024-01-10T02:24:22;99612.00;;;2.52;72.21
63715;BME280;49858;48.956;9.076;2024-01-10T02:26:51;99601.97;;;2.53;72.23
63715;BME280;49858;48.956;9.076;2024-01-10T02:29:19;99603.09;;;2.47;71.79
63715;BME280;49858;48.956;9.076;2024-01-10T02:31:47;99601.88;;;2.68;70.64
63715;BME280;49858;48.956;9.076;2024-01-10T02:34:15;99594.09;;;2.91;67.94
63715;BME280;49858;48.956;9.076;2024-01-10T02:36:43;99597.63;;;2.52;70.18
63715;BME280;49858;48.956;9.076;2024-01-10T02:39:11;99593.53;;;2.05;74.90
63715;BME280;49858;48.956;9.076;2024-01-10T02:41:39;99589.59;;;2.32;72.95
63715;BME280;49858;48.956;9.076;2024-01-10T02:44:08;99595.38;;;2.15;76.43
63715;BME280;49858;48.956;9.076;2024-01-10T02:46:36;99592.63;;;2.20;75.82
63715;BME280;49858;48.956;9.076;2024-01-10T02:49:04;99587.47;;;2.68;73.46
63715;BME280;49858;48.956;9.076;2024-01-10T02:51:32;99577.25;;;2.54;71.39
63715;BME280;49858;48.956;9.076;2024-01-10T02:54:00;99586.28;;;2.40;72.11
63715;BME280;49858;48.956;9.076;2024-01-10T02:56:28;99580.53;;;2.51;71.35
63715;BME280;49858;48.956;9.076;2024-01-10T02:58:55;99580.34;;;2.38;71.62
63715;BME280;49858;48.956;9.076;2024-01-10T03:01:25;99569.38;;;2.92;68.78
63715;BME280;49858;48.956;9.076;2024-01-10T03:03:53;99576.53;;;2.34;68.78
63715;BME280;49858;48.956;9.076;2024-01-10T03:06:20;99574.97;;;2.67;69.64
63715;BME280;49858;48.956;9.076;2024-01-10T03:08:48;99572.19;;;2.77;68.15
63715;BME280;49858;48.956;9.076;2024-01-10T03:11:16;99565.91;;;2.81;67.34
63715;BME280;49858;48.956;9.076;2024-01-10T03:13:46;99570.59;;;3.05;64.76
63715;BME280;49858;48.956;9.076;2024-01-10T03:16:14;99565.34;;;2.85;65.94
63715;BME280;49858;48.956;9.076;2024-01-10T03:18:43;99561.47;;;2.91;64.71
63715;BME280;49858;48.956;9.076;2024-01-10T03:21:11;99564.16;;;2.96;65.17
63715;BME280;49858;48.956;9.076;2024-01-10T03:23:39;99565.09;;;3.10;63.59
63715;BME280;49858;48.956;9.076;2024-01-10T03:26:09;99569.69;;;3.15;63.41
63715;BME280;49858;48.956;9.076;2024-01-10T03:28:37;99562.09;;;2.83;63.02
63715;BME280;49858;48.956;9.076;2024-01-10T03:31:05;99570.59;;;2.71;64.98
63715;BME280;49858;48.956;9.076;2024-01-10T03:33:33;99564.25;;;2.46;65.86
63715;BME280;49858;48.956;9.076;2024-01-10T03:36:03;99560.41;;;2.92;64.89
63715;BME280;49858;48.956;9.076;2024-01-10T03:38:31;99556.44;;;3.08;64.45
63715;BME280;49858;48.956;9.076;2024-01-10T03:40:58;99554.91;;;2.97;64.77
63715;BME280;49858;48.956;9.076;2024-01-10T03:43:26;99552.34;;;3.11;65.46
63715;BME280;49858;48.956;9.076;2024-01-10T03:45:54;99551.34;;;2.67;66.56
63715;BME280;49858;48.956;9.076;2024-01-10T03:48:23;99551.78;;;2.79;68.27
63715;BME280;49858;48.956;9.076;2024-01-10T03:50:51;99559.34;;;2.88;67.90
63715;BME280;49858;48.956;9.076;2024-01-10T03:53:20;99565.06;;;3.15;66.52
63715;BME280;49858;48.956;9.076;2024-01-10T03:55:48;99561.88;;;3.37;66.17
63715;BME280;49858;48.956;9.076;2024-01-10T03:58:16;99563.63;;;2.94;65.95
63715;BME280;49858;48.956;9.076;2024-01-10T04:00:44;99556.03;;;2.91;67.25
63715;BME280;49858;48.956;9.076;2024-01-10T04:03:12;99564.69;;;2.98;66.94
63715;BME280;49858;48.956;9.076;2024-01-10T04:05:41;99563.69;;;2.89;67.74
63715;BME280;49858;48.956;9.076;2024-01-10T04:08:09;99575.41;;;3.13;66.47
63715;BME280;49858;48.956;9.076;2024-01-10T04:10:38;99566.00;;;3.00;68.00
63715;BME280;49858;48.956;9.076;2024-01-10T04:13:06;99566.06;;;2.95;68.64
63715;BME280;49858;48.956;9.076;2024-01-10T04:15:34;99564.84;;;3.41;67.48
63715;BME280;49858;48.956;9.076;2024-01-10T04:18:02;99568.13;;;3.38;66.12
63715;BME280;49858;48.956;9.076;2024-01-10T04:20:29;99574.84;;;3.45;64.99
63715;BME280;49858;48.956;9.076;2024-01-10T04:22:57;99555.75;;;3.50;64.94
63715;BME280;49858;48.956;9.076;2024-01-10T04:25:25;99565.34;;;3.43;63.62
63715;BME280;49858;48.956;9.076;2024-01-10T04:27:54;99569.97;;;3.13;66.16
63715;BME280;49858;48.956;9.076;2024-01-10T04:30:23;99568.00;;;3.48;65.53
63715;BME280;49858;48.956;9.076;2024-01-10T04:32:51;99559.28;;;3.51;63.97
63715;BME280;49858;48.956;9.076;2024-01-10T04:35:19;99570.56;;;3.39;64.87
63715;BME280;49858;48.956;9.076;2024-01-10T04:37:47;99564.41;;;3.52;65.70
63715;BME280;49858;48.956;9.076;2024-01-10T04:40:15;99561.13;;;3.55;64.61
63715;BME280;49858;48.956;9.076;2024-01-10T04:42:43;99565.31;;;3.72;63.96
63715;BME280;49858;48.956;9.076;2024-01-10T04:45:13;99558.84;;;3.39;63.36
63715;BME280;49858;48.956;9.076;2024-01-10T04:47:40;99567.16;;;3.52;65.27
63715;BME280;49858;48.956;9.076;2024-01-10T04:50:09;99566.81;;;3.06;66.99
63715;BME280;49858;48.956;9.076;2024-01-10T04:52:40;99565.28;;;3.48;66.27
63715;BME280;49858;48.956;9.076;2024-01-10T04:55:08;99574.81;;;3.21;68.08
63715;BME280;49858;48.956;9.076;2024-01-10T04:57:37;99567.16;;;3.23;67.24
63715;BME280;49858;48.956;9.076;2024-01-10T05:00:06;99571.66;;;3.09;67.91
63715;BME280;49858;48.956;9.076;2024-01-10T05:02:36;99566.91;;;3.20;70.46
63715;BME280;49858;48.956;9.076;2024-01-10T05:05:05;99570.16;;;2.93;73.57
63715;BME280;49858;48.956;9.076;2024-01-10T05:07:33;99568.72;;;3.35;72.27
63715;BME280;49858;48.956;9.076;2024-01-10T05:10:01;99562.31;;;3.20;71.83
63715;BME280;49858;48.956;9.076;2024-01-10T05:12:29;99570.72;;;2.06;75.54
63715;BME280;49858;48.956;9.076;2024-01-10T05:14:57;99566.47;;;2.78;78.97
63715;BME280;49858;48.956;9.076;2024-01-10T05:17:25;99571.19;;;3.31;76.39
63715;BME280;49858;48.956;9.076;2024-01-10T05:19:54;99561.53;;;3.44;75.47
63715;BME280;49858;48.956;9.076;2024-01-10T05:22:22;99561.38;;;3.59;71.79
63715;BME280;49858;48.956;9.076;2024-01-10T05:24:50;99567.69;;;3.78;70.42
63715;BME280;49858;48.956;9.076;2024-01-10T05:27:18;99557.22;;;3.91;68.84
63715;BME280;49858;48.956;9.076;2024-01-10T05:29:46;99557.97;;;3.72;66.52
63715;BME280;49858;48.956;9.076;2024-01-10T05:32:14;99559.22;;;3.56;66.70
63715;BME280;49858;48.956;9.076;2024-01-10T05:34:41;99564.41;;;3.76;65.06
63715;BME280;49858;48.956;9.076;2024-01-10T05:37:11;99564.38;;;3.81;64.84
63715;BME280;49858;48.956;9.076;2024-01-10T05:39:39;99566.38;;;3.95;63.05
63715;BME280;49858;48.956;9.076;2024-01-10T05:42:06;99564.53;;;3.90;62.58
63715;BME280;49858;48.956;9.076;2024-01-10T05:44:34;99573.38;;;3.82;60.91
63715;BME280;49858;48.956;9.076;2024-01-10T05:47:02;99566.28;;;3.81;61.20
63715;BME280;49858;48.956;9.076;2024-01-10T05:49:31;99570.53;;;3.68;60.01
63715;BME280;49858;48.956;9.076;2024-01-10T05:51:59;99576.59;;;3.60;60.46
63715;BME280;49858;48.956;9.076;2024-01-10T05:54:28;99570.59;;;3.63;60.20
63715;BME280;49858;48.956;9.076;2024-01-10T05:56:56;99566.38;;;3.47;59.13
63715;BME280;49858;48.956;9.076;2024-01-10T05:59:24;99566.41;;;3.71;59.03
63715;BME280;49858;48.956;9.076;2024-01-10T06:01:55;99567.09;;;3.57;59.83
63715;BME280;49858;48.956;9.076;2024-01-10T06:04:23;99568.50;;;3.55;58.42
63715;BME280;49858;48.956;9.076;2024-01-10T06:06:51;99573.06;;;3.83;59.79
63715;BME280;49858;48.956;9.076;2024-01-10T06:09:19;99559.69;;;3.63;59.09
63715;BME280;49858;48.956;9.076;2024-01-10T06:11:50;99569.00;;;3.81;58.69
63715;BME280;49858;48.956;9.076;2024-01-10T06:14:18;99566.81;;;3.83;58.24
63715;BME280;49858;48.956;9.076;2024-01-10T06:16:46;99567.69;;;3.78;56.51
63715;BME280;49858;48.956;9.076;2024-01-10T06:19:14;99570.38;;;3.30;58.65
63715;BME280;49858;48.956;9.076;2024-01-10T06:21:42;99572.28;;;3.30;58.25
63715;BME280;49858;48.956;9.076;2024-01-10T06:24:10;99584.84;;;3.26;58.16
63715;BME280;49858;48.956;9.076;2024-01-10T06:26:37;99574.84;;;3.45;59.41
63715;BME280;49858;48.956;9.076;2024-01-10T06:29:06;99580.03;;;3.42;58.94
63715;BME280;49858;48.956;9.076;2024-01-10T06:31:34;99578.66;;;3.44;59.43
63715;BME280;49858;48.956;9.076;2024-01-10T06:34:02;99583.53;;;3.47;57.30
63715;BME280;49858;48.956;9.076;2024-01-10T06:36:30;99582.34;;;3.82;57.10
63715;BME280;49858;48.956;9.076;2024-01-10T06:38:58;99586.09;;;3.87;56.66
63715;BME280;49858;48.956;9.076;2024-01-10T06:41:26;99583.81;;;3.70;55.73
63715;BME280;49858;48.956;9.076;2024-01-10T06:43:54;99589.88;;;3.38;57.52
63715;BME280;49858;48.956;9.076;2024-01-10T06:46:23;99590.34;;;3.45;58.65
63715;BME280;49858;48.956;9.076;2024-01-10T06:48:51;99596.91;;;3.44;59.59
63715;BME280;49858;48.956;9.076;2024-01-10T06:51:19;99598.28;;;3.41;60.21
63715;BME280;49858;48.956;9.076;2024-01-10T06:53:47;99603.00;;;3.30;60.19
63715;BME280;49858;48.956;9.076;2024-01-10T06:56:15;99595.44;;;3.51;60.28
63715;BME280;49858;48.956;9.076;2024-01-10T06:58:44;99600.28;;;3.59;59.46
63715;BME280;49858;48.956;9.076;2024-01-10T07:01:13;99598.31;;;3.36;61.64
63715;BME280;49858;48.956;9.076;2024-01-10T07:03:43;99595.78;;;2.81;62.81
63715;BME280;49858;48.956;9.076;2024-01-10T07:06:12;99591.94;;;2.48;70.80
63715;BME280;49858;48.956;9.076;2024-01-10T07:08:42;99601.28;;;2.71;73.27
63715;BME280;49858;48.956;9.076;2024-01-10T07:11:11;99604.09;;;2.61;74.62
63715;BME280;49858;48.956;9.076;2024-01-10T07:13:40;99593.88;;;3.16;71.52
63715;BME280;49858;48.956;9.076;2024-01-10T07:16:08;99604.22;;;3.43;67.10
63715;BME280;49858;48.956;9.076;2024-01-10T07:18:36;99597.47;;;3.12;66.23
63715;BME280;49858;48.956;9.076;2024-01-10T07:21:06;99600.56;;;3.29;65.54
63715;BME280;49858;48.956;9.076;2024-01-10T07:23:35;99591.72;;;3.42;64.21
63715;BME280;49858;48.956;9.076;2024-01-10T07:26:05;99594.41;;;3.47;64.15
63715;BME280;49858;48.956;9.076;2024-01-10T07:28:32;99590.19;;;3.60;64.05
63715;BME280;49858;48.956;9.076;2024-01-10T07:31:02;99603.84;;;3.55;62.86
63715;BME280;49858;48.956;9.076;2024-01-10T07:33:30;99592.00;;;3.70;61.46
63715;BME280;49858;48.956;9.076;2024-01-10T07:35:58;99604.22;;;3.72;61.95
63715;BME280;49858;48.956;9.076;2024-01-10T07:38:27;99606.91;;;3.48;61.61
63715;BME280;49858;48.956;9.076;2024-01-10T07:40:55;99602.75;;;3.56;63.25
63715;BME280;49858;48.956;9.076;2024-01-10T07:43:26;99610.22;;;3.69;61.51
63715;BME280;49858;48.956;9.076;2024-01-10T07:45:54;99612.19;;;3.64;61.69
63715;BME280;49858;48.956;9.076;2024-01-10T07:48:22;99619.25;;;3.65;62.22
63715;BME280;49858;48.956;9.076;2024-01-10T07:50:50;99627.59;;;3.49;62.74
63715;BME280;49858;48.956;9.076;2024-01-10T07:53:18;99621.28;;;3.54;63.41
63715;BME280;49858;48.956;9.076;2024-01-10T07:55:47;99625.56;;;3.60;62.36
63715;BME280;49858;48.956;9.076;2024-01-10T07:58:16;99631.31;;;3.82;61.58
63715;BME280;49858;48.956;9.076;2024-01-10T08:00:44;99630.66;;;3.67;61.41
63715;BME280;49858;48.956;9.076;2024-01-10T08:03:13;99637.09;;;3.76;60.89
63715;BME280;49858;48.956;9.076;2024-01-10T08:05:41;99639.34;;;3.69;61.69
63715;BME280;49858;48.956;9.076;2024-01-10T08:08:09;99637.28;;;3.84;62.75
63715;BME280;49858;48.956;9.076;2024-01-10T08:10:39;99637.06;;;4.05;60.63
63715;BME280;49858;48.956;9.076;2024-01-10T08:13:09;99640.34;;;4.02;62.23
63715;BME280;49858;48.956;9.076;2024-01-10T08:15:37;99640.78;;;4.14;61.48
63715;BME280;49858;48.956;9.076;2024-01-10T08:18:05;99639.84;;;4.24;60.03
63715;BME280;49858;48.956;9.076;2024-01-10T08:20:34;99644.09;;;4.30;60.85
63715;BME280;49858;48.956;9.076;2024-01-10T08:23:03;99648.94;;;3.61;67.54
63715;BME280;49858;48.956;9.076;2024-01-10T08:25:31;99642.78;;;3.79;68.99
63715;BME280;49858;48.956;9.076;2024-01-10T08:27:59;99639.31;;;3.98;69.56
63715;BME280;49858;48.956;9.076;2024-01-10T08:30:28;99650.66;;;4.29;67.21
63715;BME280;49858;48.956;9.076;2024-01-10T08:32:56;99652.78;;;4.32;67.42
63715;BME280;49858;48.956;9.076;2024-01-10T08:35:25;99652.31;;;3.48;74.32
63715;BME280;49858;48.956;9.076;2024-01-10T08:37:54;99653.97;;;4.02;75.67
63715;BME280;49858;48.956;9.076;2024-01-10T08:40:22;99660.69;;;4.33;74.37
63715;BME280;49858;48.956;9.076;2024-01-10T08:42:52;99655.13;;;3.38;78.49
63715;BME280;49858;48.956;9.076;2024-01-10T08:45:20;99658.13;;;4.61;74.71
63715;BME280;49858;48.956;9.076;2024-01-10T08:47:49;99670.59;;;5.05;70.22
63715;BME280;49858;48.956;9.076;2024-01-10T08:50:17;99670.22;;;5.11;69.08
63715;BME280;49858;48.956;9.076;2024-01-10T08:52:45;99658.69;;;5.66;66.22
63715;BME280;49858;48.956;9.076;2024-01-10T08:55:14;99666.22;;;6.02;62.07
63715;BME280;49858;48.956;9.076;2024-01-10T08:57:41;99665.44;;;6.29;61.15
63715;BME280;49858;48.956;9.076;2024-01-10T09:00:11;99667.41;;;6.78;57.71
63715;BME280;49858;48.956;9.076;2024-01-10T09:02:39;99674.03;;;6.50;55.96
63715;BME280;49858;48.956;9.076;2024-01-10T09:05:09;99671.38;;;7.08;52.20
63715;BME280;49858;48.956;9.076;2024-01-10T09:07:38;99675.31;;;6.66;51.36
63715;BME280;49858;48.956;9.076;2024-01-10T09:10:08;99668.47;;;6.55;54.11
63715;BME280;49858;48.956;9.076;2024-01-10T09:12:39;99667.34;;;7.06;51.12
63715;BME280;49858;48.956;9.076;2024-01-10T09:15:10;99671.19;;;6.69;48.42
63715;BME280;49858;48.956;9.076;2024-01-10T09:17:40;99672.56;;;7.61;46.81
63715;BME280;49858;48.956;9.076;2024-01-10T09:20:10;99670.88;;;8.05;45.06
63715;BME280;49858;48.956;9.076;2024-01-10T09:22:39;99677.72;;;8.25;44.07
63715;BME280;49858;48.956;9.076;2024-01-10T09:25:07;99665.66;;;7.94;42.12
63715;BME280;49858;48.956;9.076;2024-01-10T09:27:35;99669.13;;;8.17;42.29
63715;BME280;49858;48.956;9.076;2024-01-10T09:30:04;99675.94;;;8.20;42.92
63715;BME280;49858;48.956;9.076;2024-01-10T09:32:35;99679.03;;;8.36;43.15
63715;BME280;49858;48.956;9.076;2024-01-10T09:35:04;99675.28;;;8.63;41.82
63715;BME280;49858;48.956;9.076;2024-01-10T09:37:33;99678.34;;;8.70;40.80
63715;BME280;49858;48.956;9.076;2024-01-10T09:40:02;99678.47;;;8.48;40.09
63715;BME280;49858;48.956;9.076;2024-01-10T09:42:30;99675.97;;;8.29;40.99
63715;BME280;49858;48.956;9.076;2024-01-10T09:45:00;99681.06;;;8.53;41.25
63715;BME280;49858;48.956;9.076;2024-01-10T09:47:30;99683.53;;;8.72;40.73
63715;BME280;49858;48.956;9.076;2024-01-10T09:49:59;99681.28;;;8.25;42.35
63715;BME280;49858;48.956;9.076;2024-01-10T09:52:34;99675.41;;;8.18;41.89
63715;BME280;49858;48.956;9.076;2024-01-10T09:55:07;99675.72;;;8.48;41.59
63715;BME280;49858;48.956;9.076;2024-01-10T09:57:36;99683.03;;;7.36;43.22
63715;BME280;49858;48.956;9.076;2024-01-10T10:00:06;99681.41;;;7.58;43.15
63715;BME280;49858;48.956;9.076;2024-01-10T10:02:38;99674.28;;;8.10;41.10
63715;BME280;49858;48.956;9.076;2024-01-10T10:05:09;99674.31;;;8.59;40.34
63715;BME280;49858;48.956;9.076;2024-01-10T10:07:46;99680.06;;;7.78;41.01
63715;BME280;49858;48.956;9.076;2024-01-10T10:10:15;99672.41;;;8.28;41.55
63715;BME280;49858;48.956;9.076;2024-01-10T10:12:44;99669.16;;;8.66;40.82
63715;BME280;49858;48.956;9.076;2024-01-10T10:15:14;99667.47;;;8.39;41.22
63715;BME280;49858;48.956;9.076;2024-01-10T10:17:44;99662.56;;;8.93;40.27
63715;BME280;49858;48.956;9.076;2024-01-10T10:20:20;99659.16;;;9.39;39.64
63715;BME280;49858;48.956;9.076;2024-01-10T10:23:00;99653.34;;;9.50;38.48
63715;BME280;49858;48.956;9.076;2024-01-10T10:25:30;99651.97;;;9.82;38.36
63715;BME280;49858;48.956;9.076;2024-01-10T10:28:00;99655.78;;;9.51;37.87
63715;BME280;49858;48.956;9.076;2024-01-10T10:30:28;99650.53;;;9.84;38.02
63715;BME280;49858;48.956;9.076;2024-01-10T10:32:57;99647.97;;;9.79;38.19
63715;BME280;49858;48.956;9.076;2024-01-10T10:35:26;99644.63;;;10.12;37.84
63715;BME280;49858;48.956;9.076;2024-01-10T10:38:07;99644.47;;;10.46;36.96
63715;BME280;49858;48.956;9.076;2024-01-10T10:40:37;99656.47;;;10.42;36.18
63715;BME280;49858;48.956;9.076;2024-01-10T10:43:05;99648.75;;;9.88;36.58
63715;BME280;49858;48.956;9.076;2024-01-10T10:45:34;99647.09;;;10.34;37.18
63715;BME280;49858;48.956;9.076;2024-01-10T10:48:03;99650.19;;;10.62;36.90
63715;BME280;49858;48.956;9.076;2024-01-10T10:50:34;99648.72;;;10.86;36.13
63715;BME280;49858;48.956;9.076;2024-01-10T10:53:03;99656.59;;;10.07;37.25
63715;BME280;49858;48.956;9.076;2024-01-10T10:55:34;99651.84;;;10.25;36.88
63715;BME280;49858;48.956;9.076;2024-01-10T10:58:04;99657.88;;;10.98;35.35
63715;BME280;49858;48.956;9.076;2024-01-10T11:00:38;99656.47;;;11.13;34.84
63715;BME280;49858;48.956;9.076;2024-01-10T11:03:10;99657.78;;;11.28;34.89
63715;BME280;49858;48.956;9.076;2024-01-10T11:05:40;99653.94;;;11.41;33.88
63715;BME280;49858;48.956;9.076;2024-01-10T11:08:11;99655.03;;;11.82;33.39
63715;BME280;49858;48.956;9.076;2024-01-10T11:10:42;99655.59;;;11.55;34.38
63715;BME280;49858;48.956;9.076;2024-01-10T11:13:32;99655.31;;;11.35;34.11
63715;BME280;49858;48.956;9.076;2024-01-10T11:16:26;99640.56;;;11.97;32.79
63715;BME280;49858;48.956;9.076;2024-01-10T11:19:13;99648.97;;;12.01;33.00
63715;BME280;49858;48.956;9.076;2024-01-10T11:21:56;99647.91;;;11.27;34.30
63715;BME280;49858;48.956;9.076;2024-01-10T11:24:31;99641.66;;;11.72;33.36
63715;BME280;49858;48.956;9.076;2024-01-10T11:27:11;99639.22;;;11.58;33.41
63715;BME280;49858;48.956;9.076;2024-01-10T11:29:39;99639.44;;;11.65;33.75
63715;BME280;49858;48.956;9.076;2024-01-10T11:32:14;99655.66;;;11.13;34.11
63715;BME280;49858;48.956;9.076;2024-01-10T11:34:50;99627.38;;;11.91;33.75
63715;BME280;49858;48.956;9.076;2024-01-10T11:37:18;99641.75;;;11.09;34.25
63715;BME280;49858;48.956;9.076;2024-01-10T11:39:45;99642.19;;;11.65;33.84
63715;BME280;49858;48.956;9.076;2024-01-10T11:42:22;99642.28;;;11.57;33.40
63715;BME280;49858;48.956;9.076;2024-01-10T11:44:51;99637.72;;;12.06;33.67
63715;BME280;49858;48.956;9.076;2024-01-10T11:47:19;99641.19;;;11.70;33.97
63715;BME280;49858;48.956;9.076;2024-01-10T11:49:55;99625.38;;;11.46;33.56
63715;BME280;49858;48.956;9.076;2024-01-10T11:52:31;99634.16;;;11.60;33.71
63715;BME280;49858;48.956;9.076;2024-01-10T11:55:00;99621.31;;;12.10;33.20
63715;BME280;49858;48.956;9.076;2024-01-10T11:57:29;99631.50;;;12.46;33.34
63715;BME280;49858;48.956;9.076;2024-01-10T11:59:59;99625.31;;;12.61;32.30
63715;BME280;49858;48.956;9.076;2024-01-10T12:02:30;99622.53;;;12.61;31.79
63715;BME280;49858;48.956;9.076;2024-01-10T12:04:59;99623.56;;;12.32;32.41
63715;BME280;49858;48.956;9.076;2024-01-10T12:07:28;99629.00;;;12.93;32.21
63715;BME280;49858;48.956;9.076;2024-01-10T12:09:56;99625.31;;;13.01;31.79
63715;BME280;49858;48.956;9.076;2024-01-10T12:12:24;99613.47;;;12.48;32.20
63715;BME280;49858;48.956;9.076;2024-01-10T12:14:54;99625.81;;;12.91;32.48
63715;BME280;49858;48.956;9.076;2024-01-10T12:17:27;99616.50;;;13.52;31.42
63715;BME280;49858;48.956;9.076;2024-01-10T12:19:56;99617.81;;;13.42;31.76
63715;BME280;49858;48.956;9.076;2024-01-10T12:22:24;99618.53;;;13.99;30.42
63715;BME280;49858;48.956;9.076;2024-01-10T12:24:51;99620.41;;;13.79;31.01
63715;BME280;49858;48.956;9.076;2024-01-10T12:27:20;99626.41;;;13.69;30.65
63715;BME280;49858;48.956;9.076;2024-01-10T12:29:50;99623.41;;;14.37;29.78
63715;BME280;49858;48.956;9.076;2024-01-10T12:32:21;99626.63;;;14.90;29.66
63715;BME280;49858;48.956;9.076;2024-01-10T12:34:57;99615.72;;;14.46;29.32
63715;BME280;49858;48.956;9.076;2024-01-10T12:37:24;99610.56;;;14.29;29.59
63715;BME280;49858;48.956;9.076;2024-01-10T12:39:52;99617.81;;;12.62;31.91
63715;BME280;49858;48.956;9.076;2024-01-10T12:42:21;99628.78;;;11.76;34.21
63715;BME280;49858;48.956;9.076;2024-01-10T12:44:49;99625.78;;;12.39;32.53
63715;BME280;49858;48.956;9.076;2024-01-10T12:47:21;99618.31;;;12.39;32.62
63715;BME280;49858;48.956;9.076;2024-01-10T12:49:50;99608.53;;;12.30;33.54
63715;BME280;49858;48.956;9.076;2024-01-10T12:52:18;99614.72;;;12.51;32.35
63715;BME280;49858;48.956;9.076;2024-01-10T12:54:50;99616.91;;;12.09;32.56
63715;BME280;49858;48.956;9.076;2024-01-10T12:57:19;99617.59;;;12.18;32.99
63715;BME280;49858;48.956;9.076;2024-01-10T12:59:46;99622.56;;;12.00;33.09
63715;BME280;49858;48.956;9.076;2024-01-10T13:02:15;99622.72;;;13.21;32.29
63715;BME280;49858;48.956;9.076;2024-01-10T13:04:46;99623.16;;;13.35;31.54
63715;BME280;49858;48.956;9.076;2024-01-10T13:07:14;99619.75;;;12.73;32.55
63715;BME280;49858;48.956;9.076;2024-01-10T13:09:42;99619.22;;;12.19;33.89
63715;BME280;49858;48.956;9.076;2024-01-10T13:12:10;99617.78;;;12.86;32.60
63715;BME280;49858;48.956;9.076;2024-01-10T13:14:38;99617.03;;;12.49;33.54
63715;BME280;49858;48.956;9.076;2024-01-10T13:17:05;99613.25;;;12.17;33.63
63715;BME280;49858;48.956;9.076;2024-01-10T13:19:33;99615.78;;;12.10;34.16